createdAt,value
2018-07-08T00:00:35.009Z,101513.86
2018-07-08T00:03:02.193Z,101517.01
2018-07-08T00:05:29.240Z,101515.83
2018-07-08T00:07:56.366Z,101511.92
2018-07-08T00:10:23.438Z,101513.55
2018-07-08T00:12:50.503Z,101512.88
2018-07-08T00:15:17.831Z,101506.05
2018-07-08T00:17:44.873Z,101500.05
2018-07-08T00:20:12.849Z,101501.91
2018-07-08T00:22:39.880Z,101500.44
2018-07-08T00:25:07.134Z,101502.98
2018-07-08T00:27:35.120Z,101497.38
2018-07-08T00:30:02.207Z,101498.13
2018-07-08T00:32:29.200Z,101490.19
2018-07-08T00:34:56.215Z,101491.11
2018-07-08T00:37:23.523Z,101492.38
2018-07-08T00:39:50.807Z,101491.81
2018-07-08T00:42:18.132Z,101497.34
2018-07-08T00:44:45.244Z,101489.95
2018-07-08T00:47:12.330Z,101495.02
2018-07-08T00:49:39.594Z,101493.61
2018-07-08T00:52:06.629Z,101501.45
2018-07-08T00:54:33.722Z,101498.95
2018-07-08T00:57:00.760Z,101505.94
2018-07-08T00:59:27.795Z,101511.06
2018-07-08T01:01:54.892Z,101507.38
2018-07-08T01:04:21.894Z,101505.50
2018-07-08T01:06:48.961Z,101507.96
2018-07-08T01:09:16.970Z,101500.08
2018-07-08T01:11:43.980Z,101500.26
2018-07-08T01:14:10.988Z,101501.43
2018-07-08T01:16:38.012Z,101504.82
2018-07-08T01:19:05.037Z,101497.72
2018-07-08T01:21:32.129Z,101496.39
2018-07-08T01:23:59.165Z,101489.05
2018-07-08T01:26:26.490Z,101497.27
2018-07-08T01:28:53.510Z,101492.14
2018-07-08T01:31:20.598Z,101500.28
2018-07-08T01:33:47.697Z,101496.00
2018-07-08T01:36:14.777Z,101504.58
2018-07-08T01:38:41.821Z,101501.73
2018-07-08T01:41:08.923Z,101503.45
2018-07-08T01:43:35.923Z,101504.70
2018-07-08T01:46:04.005Z,101507.34
2018-07-08T01:48:31.084Z,101499.52
2018-07-08T01:50:58.202Z,101513.02
2018-07-08T01:53:25.691Z,101508.89
2018-07-08T01:55:54.050Z,101512.35
2018-07-08T01:58:21.128Z,101516.47
2018-07-08T02:00:48.258Z,101518.04
2018-07-08T02:03:15.371Z,101507.94
2018-07-08T02:05:42.385Z,101508.63
2018-07-08T02:08:09.462Z,101505.66
2018-07-08T02:10:36.819Z,101512.32
2018-07-08T02:13:03.883Z,101505.36
2018-07-08T02:15:31.073Z,101500.61
2018-07-08T02:17:58.454Z,101495.89
2018-07-08T02:20:25.475Z,101497.15
2018-07-08T02:22:52.826Z,101497.20
2018-07-08T02:25:19.869Z,101496.78
2018-07-08T02:27:46.883Z,101498.31
2018-07-08T02:30:13.923Z,101496.48
2018-07-08T02:32:40.966Z,101494.29
2018-07-08T02:35:08.133Z,101496.78
2018-07-08T02:37:35.150Z,101498.47
2018-07-08T02:40:02.188Z,101499.34
2018-07-08T02:42:29.222Z,101503.29
2018-07-08T02:44:56.276Z,101500.72
2018-07-08T02:47:23.804Z,101505.11
2018-07-08T02:49:51.104Z,101510.20
2018-07-08T02:52:18.883Z,101514.67
2018-07-08T02:54:45.961Z,101518.54
2018-07-08T02:57:13.104Z,101516.25
2018-07-08T02:59:40.231Z,101516.52
2018-07-08T03:02:07.250Z,101518.93
2018-07-08T03:04:34.254Z,101520.25
2018-07-08T03:07:02.121Z,101518.41
2018-07-08T03:09:29.117Z,101520.77
2018-07-08T03:11:56.131Z,101519.24
2018-07-08T03:14:23.330Z,101515.52
2018-07-08T03:16:50.364Z,101520.56
2018-07-08T03:21:51.551Z,101517.72
2018-07-08T03:24:18.783Z,101521.34
2018-07-08T03:26:45.794Z,101524.64
2018-07-08T03:29:14.623Z,101532.98
2018-07-08T03:31:41.699Z,101526.89
2018-07-08T03:34:08.785Z,101532.53
2018-07-08T03:36:35.846Z,101538.37
2018-07-08T03:39:04.173Z,101541.42
2018-07-08T03:41:31.173Z,101541.22
2018-07-08T03:43:58.168Z,101547.19
2018-07-08T03:46:25.248Z,101550.43
2018-07-08T03:48:52.289Z,101536.13
2018-07-08T03:51:19.402Z,101544.72
2018-07-08T03:53:46.410Z,101540.22
2018-07-08T03:56:13.541Z,101547.03
2018-07-08T03:58:40.544Z,101543.81
2018-07-08T04:01:07.560Z,101544.30
2018-07-08T04:03:34.766Z,101546.20
2018-07-08T04:06:01.958Z,101547.33
2018-07-08T04:08:29.182Z,101546.25
2018-07-08T04:10:56.181Z,101541.99
2018-07-08T04:13:23.187Z,101542.38
2018-07-08T04:15:50.218Z,101548.21
2018-07-08T04:18:17.237Z,101548.77
2018-07-08T04:20:44.356Z,101556.96
2018-07-08T04:23:11.385Z,101562.24
2018-07-08T04:25:38.377Z,101556.36
2018-07-08T04:28:05.402Z,101563.83
2018-07-08T04:30:32.457Z,101564.16
2018-07-08T04:32:59.904Z,101558.70
2018-07-08T04:35:26.977Z,101555.41
2018-07-08T04:37:54.022Z,101555.62
2018-07-08T04:40:21.098Z,101558.83
2018-07-08T04:42:48.168Z,101559.11
2018-07-08T04:45:15.193Z,101559.08
2018-07-08T04:47:42.324Z,101561.63
2018-07-08T04:50:09.354Z,101564.94
2018-07-08T04:52:36.386Z,101558.72
2018-07-08T04:55:03.562Z,101562.98
2018-07-08T04:57:30.702Z,101570.06
2018-07-08T04:59:57.718Z,101575.38
2018-07-08T05:02:24.720Z,101570.55
2018-07-08T05:04:51.814Z,101571.15
2018-07-08T05:07:18.941Z,101576.59
2018-07-08T05:09:45.953Z,101569.02
2018-07-08T05:12:12.960Z,101576.09
2018-07-08T05:14:40.061Z,101572.23
2018-07-08T05:17:08.169Z,101583.59
2018-07-08T05:19:35.178Z,101577.95
2018-07-08T05:22:02.269Z,101579.50
2018-07-08T05:24:29.318Z,101585.53
2018-07-08T05:26:56.322Z,101590.46
2018-07-08T05:29:23.354Z,101588.64
2018-07-08T05:31:50.396Z,101585.53
2018-07-08T05:34:17.477Z,101582.03
2018-07-08T05:36:44.575Z,101586.69
2018-07-08T05:39:11.610Z,101588.73
2018-07-08T05:41:38.693Z,101593.11
2018-07-08T05:44:06.721Z,101582.82
2018-07-08T05:46:33.720Z,101586.30
2018-07-08T05:49:00.749Z,101593.46
2018-07-08T05:51:27.765Z,101588.22
2018-07-08T05:53:54.914Z,101603.95
2018-07-08T05:56:22.030Z,101601.20
2018-07-08T05:58:49.029Z,101603.55
2018-07-08T06:01:16.213Z,101599.95
2018-07-08T06:03:43.277Z,101597.46
2018-07-08T06:06:10.394Z,101596.55
2018-07-08T06:08:37.421Z,101602.02
2018-07-08T06:11:04.752Z,101600.78
2018-07-08T06:13:31.782Z,101600.78
2018-07-08T06:15:58.892Z,101599.95
2018-07-08T06:18:26.019Z,101604.87
2018-07-08T06:20:53.147Z,101600.59
2018-07-08T06:23:21.197Z,101595.91
2018-07-08T06:25:49.092Z,101599.73
2018-07-08T06:28:16.285Z,101597.34
2018-07-08T06:30:43.463Z,101597.31
2018-07-08T06:33:10.488Z,101603.23
2018-07-08T06:35:37.705Z,101596.66
2018-07-08T06:38:04.788Z,101593.48
2018-07-08T06:40:31.857Z,101596.09
2018-07-08T06:42:58.915Z,101606.64
2018-07-08T06:45:33.000Z,101600.05
2018-07-08T06:48:00.037Z,101597.80
2018-07-08T06:50:27.423Z,101599.72
2018-07-08T06:52:54.415Z,101595.19
2018-07-08T06:55:21.431Z,101603.52
2018-07-08T06:57:48.484Z,101608.20
2018-07-08T07:00:15.553Z,101608.97
2018-07-08T07:02:42.627Z,101604.88
2018-07-08T07:05:09.645Z,101608.27
2018-07-08T07:07:36.744Z,101609.13
2018-07-08T07:10:03.863Z,101609.44
2018-07-08T07:12:30.968Z,101606.61
2018-07-08T07:14:57.977Z,101604.67
2018-07-08T07:17:25.131Z,101610.14
2018-07-08T07:19:52.604Z,101605.47
2018-07-08T07:22:19.664Z,101602.06
2018-07-08T07:24:46.766Z,101604.06
2018-07-08T07:27:13.905Z,101604.71
2018-07-08T07:29:40.976Z,101611.55
2018-07-08T07:32:08.018Z,101604.79
2018-07-08T07:34:35.043Z,101603.44
2018-07-08T07:37:02.153Z,101611.67
2018-07-08T07:39:29.158Z,101618.80
2018-07-08T07:41:56.321Z,101610.08
2018-07-08T07:44:23.374Z,101604.52
2018-07-08T07:46:50.421Z,101609.50
2018-07-08T07:49:17.445Z,101609.06
2018-07-08T07:51:44.531Z,101603.34
2018-07-08T07:54:11.534Z,101608.72
2018-07-08T07:56:38.564Z,101609.33
2018-07-08T07:59:05.713Z,101611.52
2018-07-08T08:01:32.788Z,101603.77
2018-07-08T08:03:59.822Z,101602.86
2018-07-08T08:06:26.846Z,101604.23
2018-07-08T08:08:54.118Z,101610.98
2018-07-08T08:11:21.237Z,101609.92
2018-07-08T08:13:58.693Z,101610.97
2018-07-08T08:16:25.855Z,101606.23
2018-07-08T08:18:52.867Z,101605.63
2018-07-08T08:21:20.750Z,101607.96
2018-07-08T08:23:47.784Z,101616.48
2018-07-08T08:26:14.900Z,101612.67
2018-07-08T08:28:41.989Z,101606.45
2018-07-08T08:31:09.170Z,101611.05
2018-07-08T08:33:37.641Z,101615.77
2018-07-08T08:36:04.673Z,101610.97
2018-07-08T08:38:31.682Z,101616.30
2018-07-08T08:40:58.784Z,101605.52
2018-07-08T08:43:25.817Z,101620.56
2018-07-08T08:45:52.857Z,101613.28
2018-07-08T08:48:19.946Z,101612.66
2018-07-08T08:50:46.942Z,101613.77
2018-07-08T08:53:14.092Z,101615.05
2018-07-08T08:55:41.225Z,101612.64
2018-07-08T08:58:09.294Z,101612.06
2018-07-08T09:00:36.473Z,101610.52
2018-07-08T09:03:03.709Z,101610.55
2018-07-08T09:05:30.737Z,101613.13
2018-07-08T09:07:57.755Z,101606.08
2018-07-08T09:10:24.746Z,101615.57
2018-07-08T09:12:51.813Z,101619.19
2018-07-08T09:15:18.829Z,101617.83
2018-07-08T09:17:45.950Z,101612.39
2018-07-08T09:20:14.140Z,101617.23
2018-07-08T09:22:41.148Z,101614.02
2018-07-08T09:25:08.318Z,101616.61
2018-07-08T09:27:35.357Z,101619.33
2018-07-08T09:30:02.404Z,101615.32
2018-07-08T09:32:29.409Z,101611.16
2018-07-08T09:34:56.573Z,101616.37
2018-07-08T09:37:23.606Z,101614.05
2018-07-08T09:39:50.656Z,101611.16
2018-07-08T09:42:17.654Z,101608.88
2018-07-08T09:44:44.677Z,101608.09
2018-07-08T09:47:11.698Z,101612.33
2018-07-08T09:49:38.800Z,101607.38
2018-07-08T09:52:12.656Z,101607.97
2018-07-08T09:54:39.718Z,101605.12
2018-07-08T09:57:06.825Z,101606.04
2018-07-08T09:59:33.836Z,101605.32
2018-07-08T10:02:00.849Z,101608.75
2018-07-08T10:04:28.229Z,101612.42
2018-07-08T10:06:55.270Z,101610.75
2018-07-08T10:09:23.450Z,101616.56
2018-07-08T10:11:50.522Z,101619.15
2018-07-08T10:14:20.000Z,101616.63
2018-07-08T10:16:47.122Z,101623.04
2018-07-08T10:19:15.627Z,101621.61
2018-07-08T10:21:42.694Z,101625.05
2018-07-08T10:24:10.008Z,101618.75
2018-07-08T10:26:37.072Z,101627.04
2018-07-08T10:29:04.468Z,101618.23
2018-07-08T10:31:47.432Z,101624.66
2018-07-08T10:34:14.461Z,101624.22
2018-07-08T10:36:41.606Z,101630.54
2018-07-08T10:39:10.015Z,101616.83
2018-07-08T10:41:37.045Z,101621.95
2018-07-08T10:44:04.178Z,101619.80
2018-07-08T10:46:31.359Z,101620.06
2018-07-08T10:48:58.432Z,101621.88
2018-07-08T10:51:25.610Z,101611.22
2018-07-08T10:53:52.665Z,101614.30
2018-07-08T10:56:19.884Z,101612.94
2018-07-08T10:58:46.990Z,101616.64
2018-07-08T11:01:14.086Z,101604.78
2018-07-08T11:03:41.107Z,101606.31
2018-07-08T11:06:08.261Z,101605.55
2018-07-08T11:08:35.319Z,101600.40
2018-07-08T11:11:03.369Z,101603.27
2018-07-08T11:13:30.481Z,101609.23
2018-07-08T11:15:57.574Z,101602.30
2018-07-08T11:18:25.648Z,101606.14
2018-07-08T11:20:52.761Z,101599.39
2018-07-08T11:23:19.913Z,101604.28
2018-07-08T11:25:46.961Z,101601.47
2018-07-08T11:28:13.962Z,101608.65
2018-07-08T11:30:41.024Z,101602.39
2018-07-08T11:33:08.737Z,101597.18
2018-07-08T11:35:35.816Z,101594.39
2018-07-08T11:38:02.906Z,101602.47
2018-07-08T11:40:30.098Z,101601.31
2018-07-08T11:42:57.252Z,101605.73
2018-07-08T11:45:24.383Z,101599.56
2018-07-08T11:47:51.522Z,101598.55
2018-07-08T11:50:18.641Z,101598.55
2018-07-08T11:52:45.677Z,101600.11
2018-07-08T11:55:12.802Z,101596.11
2018-07-08T11:57:46.859Z,101596.19
2018-07-08T12:00:13.942Z,101607.59
2018-07-08T12:02:41.216Z,101603.44
2018-07-08T12:05:08.729Z,101600.36
2018-07-08T12:07:37.464Z,101596.06
2018-07-08T12:10:04.573Z,101608.02
2018-07-08T12:12:33.555Z,101607.52
2018-07-08T12:15:00.761Z,101600.17
2018-07-08T12:17:27.796Z,101598.52
2018-07-08T12:19:54.889Z,101599.45
2018-07-08T12:22:21.957Z,101603.13
2018-07-08T12:24:49.081Z,101604.59
2018-07-08T12:27:16.165Z,101602.51
2018-07-08T12:29:44.339Z,101592.41
2018-07-08T12:32:11.413Z,101597.50
2018-07-08T12:34:38.440Z,101605.17
2018-07-08T12:37:05.766Z,101598.81
2018-07-08T12:39:32.801Z,101601.53
2018-07-08T12:41:59.863Z,101598.20
2018-07-08T12:44:26.919Z,101596.02
2018-07-08T12:46:53.952Z,101597.15
2018-07-08T12:49:21.060Z,101596.06
2018-07-08T12:51:48.085Z,101588.80
2018-07-08T12:54:15.354Z,101593.58
2018-07-08T12:56:42.361Z,101597.20
2018-07-08T12:59:09.449Z,101600.91
2018-07-08T13:01:36.487Z,101598.17
2018-07-08T13:04:03.518Z,101600.00
2018-07-08T13:06:30.725Z,101602.84
2018-07-08T13:08:58.012Z,101599.16
2018-07-08T13:11:25.102Z,101603.91
2018-07-08T13:13:52.277Z,101606.20
2018-07-08T13:16:19.302Z,101603.98
2018-07-08T13:18:46.318Z,101610.14
2018-07-08T13:21:13.357Z,101616.41
2018-07-08T13:23:40.427Z,101607.25
2018-07-08T13:26:07.501Z,101611.79
2018-07-08T13:28:34.521Z,101602.81
2018-07-08T13:31:01.642Z,101611.32
2018-07-08T13:33:28.646Z,101608.47
2018-07-08T13:35:55.666Z,101610.14
2018-07-08T13:38:22.824Z,101607.42
2018-07-08T13:40:49.875Z,101606.32
2018-07-08T13:43:16.876Z,101603.88
2018-07-08T13:45:43.974Z,101604.88
2018-07-08T13:48:11.014Z,101609.45
2018-07-08T13:50:38.458Z,101601.62
2018-07-08T13:53:05.560Z,101608.92
2018-07-08T13:55:32.659Z,101608.67
2018-07-08T13:58:00.068Z,101606.87
2018-07-08T14:00:27.177Z,101601.95
2018-07-08T14:02:54.277Z,101593.39
2018-07-08T14:05:21.299Z,101600.54
2018-07-08T14:07:48.381Z,101602.84
2018-07-08T14:10:15.497Z,101595.44
2018-07-08T14:12:42.492Z,101603.20
2018-07-08T14:15:09.678Z,101604.35
2018-07-08T14:17:36.697Z,101608.16
2018-07-08T14:20:04.293Z,101604.17
2018-07-08T14:22:31.328Z,101604.30
2018-07-08T14:24:58.377Z,101605.84
2018-07-08T14:27:25.553Z,101606.87
2018-07-08T14:29:52.682Z,101602.12
2018-07-08T14:32:19.815Z,101600.58
2018-07-08T14:34:46.953Z,101604.64
2018-07-08T14:37:14.088Z,101604.53
2018-07-08T14:39:41.149Z,101600.53
2018-07-08T14:42:08.296Z,101598.67
2018-07-08T14:44:35.539Z,101593.53
2018-07-08T14:47:02.597Z,101589.81
2018-07-08T14:49:29.608Z,101588.81
2018-07-08T14:51:56.697Z,101588.12
2018-07-08T14:54:23.789Z,101601.45
2018-07-08T14:56:51.286Z,101586.70
2018-07-08T14:59:18.346Z,101589.58
2018-07-08T15:01:45.391Z,101592.37
2018-07-08T15:04:12.560Z,101586.17
2018-07-08T15:06:39.613Z,101586.22
2018-07-08T15:09:08.491Z,101592.27
2018-07-08T15:11:35.859Z,101593.69
2018-07-08T15:14:03.185Z,101596.64
2018-07-08T15:16:30.357Z,101539.28
2018-07-08T15:18:57.353Z,101579.28
2018-07-08T15:21:24.466Z,101584.64
2018-07-08T15:23:51.561Z,101582.09
2018-07-08T15:26:18.667Z,101581.48
2018-07-08T15:28:45.802Z,101583.75
2018-07-08T15:31:13.129Z,101577.83
2018-07-08T15:33:40.168Z,101570.91
2018-07-08T15:36:07.256Z,101567.85
2018-07-08T15:38:34.349Z,101560.09
2018-07-08T15:41:01.442Z,101561.55
2018-07-08T15:43:28.553Z,101563.16
2018-07-08T15:45:55.717Z,101569.36
2018-07-08T15:48:22.834Z,101564.71
2018-07-08T15:50:49.894Z,101567.94
2018-07-08T15:53:16.989Z,101572.22
2018-07-08T15:55:44.120Z,101574.27
2018-07-08T15:58:11.213Z,101569.16
2018-07-08T16:00:38.406Z,101564.88
2018-07-08T16:03:05.449Z,101558.89
2018-07-08T16:05:32.676Z,101572.19
2018-07-08T16:07:59.835Z,101573.34
2018-07-08T16:10:26.937Z,101578.22
2018-07-08T16:12:54.026Z,101570.94
2018-07-08T16:15:21.922Z,101564.06
2018-07-08T16:17:48.961Z,101577.43
2018-07-08T16:20:16.930Z,101580.97
2018-07-08T16:22:43.971Z,101571.83
2018-07-08T16:25:11.023Z,101567.77
2018-07-08T16:27:38.149Z,101578.06
2018-07-08T16:30:05.234Z,101571.99
2018-07-08T16:32:32.274Z,101574.97
2018-07-08T16:34:59.376Z,101575.30
2018-07-08T16:38:14.809Z,101571.88
2018-07-08T16:40:41.898Z,101575.75
2018-07-08T16:43:11.305Z,101579.32
2018-07-08T16:45:38.378Z,101578.49
2018-07-08T16:48:05.426Z,101573.98
2018-07-08T16:50:32.477Z,101567.92
2018-07-08T16:52:59.641Z,101574.16
2018-07-08T16:55:26.645Z,101568.77
2018-07-08T16:57:53.789Z,101569.03
2018-07-08T17:00:20.904Z,101571.12
2018-07-08T17:02:47.904Z,101577.77
2018-07-08T17:05:14.951Z,101569.31
2018-07-08T17:07:42.185Z,101583.00
2018-07-08T17:10:09.809Z,101569.23
2018-07-08T17:12:36.892Z,101570.39
2018-07-08T17:15:03.989Z,101565.25
2018-07-08T17:17:31.193Z,101563.17
2018-07-08T17:19:58.365Z,101564.55
2018-07-08T17:22:25.520Z,101565.73
2018-07-08T17:24:52.758Z,101569.17
2018-07-08T17:27:19.836Z,101564.05
2018-07-08T17:29:46.921Z,101566.44
2018-07-08T17:32:13.992Z,101565.30
2018-07-08T17:34:41.605Z,101561.70
2018-07-08T17:37:08.934Z,101559.74
2018-07-08T17:39:36.128Z,101560.13
2018-07-08T17:42:03.231Z,101557.74
2018-07-08T17:44:30.574Z,101563.09
2018-07-08T17:46:58.899Z,101562.98
2018-07-08T17:49:25.990Z,101560.25
2018-07-08T17:51:53.078Z,101561.20
2018-07-08T17:54:20.599Z,101558.70
2018-07-08T17:56:47.635Z,101568.69
2018-07-08T17:59:14.683Z,101560.78
2018-07-08T18:01:41.781Z,101564.27
2018-07-08T18:04:08.921Z,101562.95
2018-07-08T18:06:36.085Z,101567.16
2018-07-08T18:09:04.200Z,101563.52
2018-07-08T18:11:31.854Z,101561.75
2018-07-08T18:13:58.940Z,101566.61
2018-07-08T18:16:26.000Z,101558.67
2018-07-08T18:18:53.346Z,101557.20
2018-07-08T18:21:20.441Z,101558.35
2018-07-08T18:23:47.479Z,101559.14
2018-07-08T18:26:14.745Z,101546.81
2018-07-08T18:28:42.405Z,101558.28
2018-07-08T18:31:09.445Z,101559.64
2018-07-08T18:33:36.461Z,101564.23
2018-07-08T18:36:03.709Z,101557.67
2018-07-08T18:38:30.890Z,101559.18
2018-07-08T18:40:57.913Z,101555.39
2018-07-08T18:43:25.005Z,101556.77
2018-07-08T18:45:52.178Z,101554.66
2018-07-08T18:48:19.253Z,101553.07
2018-07-08T18:50:46.611Z,101542.17
2018-07-08T18:53:13.754Z,101549.09
2018-07-08T18:55:40.865Z,101548.01
2018-07-08T18:58:07.964Z,101551.33
2018-07-08T19:00:36.717Z,101550.59
2018-07-08T19:03:03.871Z,101552.70
2018-07-08T19:05:31.963Z,101559.33
2018-07-08T19:07:59.379Z,101555.92
2018-07-08T19:10:26.404Z,101561.05
2018-07-08T19:12:53.470Z,101555.48
2018-07-08T19:15:20.553Z,101559.64
2018-07-08T19:17:47.646Z,101560.95
2018-07-08T19:20:14.814Z,101562.37
2018-07-08T19:22:41.849Z,101556.14
2018-07-08T19:25:09.849Z,101556.98
2018-07-08T19:27:36.890Z,101561.86
2018-07-08T19:30:04.313Z,101568.63
2018-07-08T19:32:32.052Z,101569.00
2018-07-08T19:34:59.563Z,101566.95
2018-07-08T19:37:26.916Z,101569.77
2018-07-08T19:39:53.936Z,101579.22
2018-07-08T19:42:21.000Z,101574.15
2018-07-08T19:44:48.016Z,101571.30
2018-07-08T19:47:15.170Z,101574.09
2018-07-08T19:49:42.224Z,101569.15
2018-07-08T19:52:09.245Z,101574.88
2018-07-08T19:54:36.399Z,101575.83
2018-07-08T19:58:17.033Z,101567.81
2018-07-08T20:00:44.078Z,101576.19
2018-07-08T20:03:11.125Z,101571.20
2018-07-08T20:05:38.238Z,101577.16
2018-07-08T20:08:05.281Z,101574.30
2018-07-08T20:10:33.097Z,101577.46
2018-07-08T20:13:00.220Z,101580.88
2018-07-08T20:15:27.480Z,101591.14
2018-07-08T20:17:54.813Z,101593.27
2018-07-08T20:20:21.873Z,101590.27
2018-07-08T20:22:48.930Z,101593.27
2018-07-08T20:25:15.987Z,101587.08
2018-07-08T20:27:43.612Z,101590.41
2018-07-08T20:30:10.737Z,101591.52
2018-07-08T20:32:37.915Z,101591.41
2018-07-08T20:35:05.165Z,101593.78
2018-07-08T20:37:32.216Z,101591.23
2018-07-08T20:39:59.298Z,101593.53
2018-07-08T20:42:26.401Z,101594.41
2018-07-08T20:44:53.981Z,101595.89
2018-07-08T20:47:21.028Z,101591.77
2018-07-08T20:49:48.399Z,101587.95
2018-07-08T20:52:16.476Z,101588.71
2018-07-08T20:54:45.753Z,101591.58
2018-07-08T20:57:13.066Z,101595.66
2018-07-08T20:59:47.166Z,101595.03
2018-07-08T21:02:14.408Z,101594.02
2018-07-08T21:04:42.373Z,101596.90
2018-07-08T21:07:09.466Z,101594.24
2018-07-08T21:09:36.589Z,101600.57
2018-07-08T21:12:03.795Z,101607.42
2018-07-08T21:14:30.862Z,101608.80
2018-07-08T21:17:03.635Z,101602.73
2018-07-08T21:19:30.838Z,101609.09
2018-07-08T21:21:57.912Z,101602.19
2018-07-08T21:24:25.173Z,101603.60
2018-07-08T21:26:54.124Z,101598.55
2018-07-08T21:29:21.419Z,101600.56
2018-07-08T21:31:48.486Z,101593.30
2018-07-08T21:34:16.983Z,101592.87
2018-07-08T21:36:46.434Z,101588.67
2018-07-08T21:39:16.360Z,101585.78
2018-07-08T21:41:45.993Z,101592.50
2018-07-08T21:44:16.324Z,101592.50
2018-07-08T21:46:46.216Z,101589.06
2018-07-08T21:49:19.377Z,101589.99
2018-07-08T21:51:50.474Z,101598.12
2018-07-08T21:54:20.710Z,101593.02
2018-07-08T21:56:51.057Z,101595.08
2018-07-08T21:59:20.031Z,101590.78
2018-07-08T22:02:01.697Z,101591.97
2018-07-08T22:04:28.785Z,101594.12
2018-07-08T22:07:01.621Z,101592.41
2018-07-08T22:09:28.725Z,101587.94
2018-07-08T22:11:56.026Z,101589.41
2018-07-08T22:14:23.520Z,101586.98
2018-07-08T22:16:50.695Z,101595.95
2018-07-08T22:19:17.703Z,101596.81
2018-07-08T22:21:44.876Z,101591.39
2018-07-08T22:24:12.038Z,101590.70
2018-07-08T22:26:39.065Z,101592.36
2018-07-08T22:29:06.249Z,101588.58
2018-07-08T22:31:33.425Z,101593.56
2018-07-08T22:34:00.515Z,101588.87
2018-07-08T22:36:27.558Z,101594.05
2018-07-08T22:38:54.640Z,101593.46
2018-07-08T22:41:21.736Z,101589.98
2018-07-08T22:43:48.777Z,101595.20
2018-07-08T22:46:16.113Z,101592.39
2018-07-08T22:48:43.313Z,101589.09
2018-07-08T22:51:10.326Z,101588.33
2018-07-08T22:53:37.386Z,101588.02
2018-07-08T22:56:04.441Z,101586.77
2018-07-08T22:58:31.614Z,101578.25
2018-07-08T23:01:10.173Z,101581.95
2018-07-08T23:03:46.148Z,101577.27
2018-07-08T23:06:13.384Z,101577.46
2018-07-08T23:08:40.823Z,101578.64
2018-07-08T23:11:08.209Z,101574.19
2018-07-08T23:13:35.673Z,101575.33
2018-07-08T23:16:02.798Z,101575.33
2018-07-08T23:18:29.817Z,101576.70
2018-07-08T23:20:56.913Z,101573.67
2018-07-08T23:23:23.941Z,101579.31
2018-07-08T23:25:51.055Z,101572.99
2018-07-08T23:28:18.276Z,101576.42
2018-07-08T23:30:45.330Z,101579.48
2018-07-08T23:33:13.049Z,101576.30
2018-07-08T23:35:40.062Z,101574.95
2018-07-08T23:38:10.165Z,101573.58
2018-07-08T23:40:37.211Z,101575.91
2018-07-08T23:43:04.505Z,101570.98
2018-07-08T23:45:31.610Z,101578.94
2018-07-08T23:47:59.626Z,101573.90
2018-07-08T23:50:26.741Z,101574.09
2018-07-08T23:52:53.770Z,101567.06
2018-07-08T23:55:20.788Z,101564.45
2018-07-08T23:57:47.959Z,101564.16
